createdAt,value
2017-12-14T00:02:23.746Z,89.40
2017-12-14T00:04:56.898Z,90.20
2017-12-14T00:07:27.931Z,90.10
2017-12-14T00:10:07.189Z,90.30
2017-12-14T00:12:42.319Z,90.30
2017-12-14T00:15:11.765Z,90.10
2017-12-14T00:17:41.826Z,90.30
2017-12-14T00:31:01.023Z,91.00
2017-12-14T00:33:35.944Z,90.00
2017-12-14T00:39:28.875Z,90.50
2017-12-14T00:42:03.977Z,90.10
2017-12-14T00:44:36.181Z,90.50
2017-12-14T00:47:14.242Z,90.60
2017-12-14T00:49:52.891Z,90.90
2017-12-14T01:05:33.525Z,90.70
2017-12-14T01:08:02.683Z,90.30
2017-12-14T01:10:36.143Z,90.30
2017-12-14T01:13:09.160Z,90.10
2017-12-14T01:15:42.597Z,89.90
2017-12-14T01:18:14.840Z,89.90
2017-12-14T01:34:14.470Z,90.00
2017-12-14T01:50:17.182Z,89.00
2017-12-14T01:56:20.469Z,89.10
2017-12-14T01:58:53.788Z,89.10
2017-12-14T02:01:23.019Z,89.00
2017-12-14T02:03:52.094Z,89.30
2017-12-14T02:06:23.126Z,89.40
2017-12-14T02:08:56.385Z,89.90
2017-12-14T02:11:28.147Z,89.00
2017-12-14T02:14:02.831Z,88.60
2017-12-14T02:16:37.717Z,88.60
2017-12-14T02:19:17.269Z,87.90
2017-12-14T02:31:53.682Z,89.00
2017-12-14T02:34:27.775Z,88.80
2017-12-14T02:40:42.091Z,87.40
2017-12-14T02:43:15.977Z,87.00
2017-12-14T02:45:48.872Z,87.00
2017-12-14T02:48:24.383Z,87.50
2017-12-14T02:51:01.026Z,86.90
2017-12-14T02:53:35.829Z,86.80
2017-12-14T02:56:09.206Z,86.10
2017-12-14T02:58:43.022Z,86.50
2017-12-14T03:01:17.129Z,86.50
2017-12-14T03:03:51.903Z,87.10
2017-12-14T03:06:27.105Z,87.60
2017-12-14T03:09:07.038Z,88.10
2017-12-14T03:11:45.380Z,88.00
2017-12-14T03:14:17.006Z,88.40
2017-12-14T03:16:52.953Z,88.40
2017-12-14T03:19:27.212Z,88.90
2017-12-14T03:22:04.419Z,89.10
2017-12-14T03:24:48.624Z,89.50
2017-12-14T03:27:25.699Z,90.20
2017-12-14T03:30:00.405Z,90.00
2017-12-14T03:32:32.380Z,90.00
2017-12-14T03:35:11.008Z,90.00
2017-12-14T03:38:12.360Z,90.00
2017-12-14T03:40:46.665Z,90.00
2017-12-14T03:43:23.893Z,90.20
2017-12-14T03:46:02.897Z,90.00
2017-12-14T03:48:38.790Z,90.00
2017-12-14T03:51:24.521Z,89.10
2017-12-14T03:53:55.146Z,89.40
2017-12-14T03:56:24.687Z,89.60
2017-12-14T03:58:54.810Z,89.60
2017-12-14T04:01:34.464Z,89.40
2017-12-14T04:04:09.814Z,89.00
2017-12-14T04:06:40.855Z,89.30
2017-12-14T04:09:36.375Z,88.90
2017-12-14T04:12:05.327Z,88.60
2017-12-14T04:14:37.811Z,88.10
2017-12-14T04:17:10.112Z,87.50
2017-12-14T04:19:42.271Z,87.40
2017-12-14T04:22:18.141Z,87.30
2017-12-14T04:41:40.825Z,88.70
2017-12-14T04:44:13.322Z,88.40
2017-12-14T04:46:46.778Z,88.30
2017-12-14T04:49:21.251Z,88.20
2017-12-14T04:51:51.599Z,88.90
2017-12-14T04:54:25.888Z,88.70
2017-12-14T04:56:55.693Z,88.10
2017-12-14T04:59:33.251Z,88.00
2017-12-14T05:02:15.062Z,87.90
2017-12-14T05:04:48.834Z,88.50
2017-12-14T05:07:21.814Z,88.20
2017-12-14T05:20:13.612Z,88.30
2017-12-14T05:23:05.920Z,88.90
2017-12-14T05:26:19.853Z,89.50
2017-12-14T05:28:55.491Z,89.40
2017-12-14T05:31:34.653Z,89.60
2017-12-14T05:34:08.948Z,89.50
2017-12-14T05:36:47.248Z,89.90
2017-12-14T05:46:43.457Z,90.00
2017-12-14T05:49:16.651Z,89.60
2017-12-14T05:51:47.738Z,90.10
2017-12-14T05:54:55.245Z,90.10
2017-12-14T05:57:26.813Z,90.30
2017-12-14T06:00:00.333Z,90.20
2017-12-14T06:02:40.039Z,90.20
2017-12-14T06:05:13.415Z,90.00
2017-12-14T06:07:50.920Z,90.00
2017-12-14T06:16:51.629Z,90.10
2017-12-14T06:19:25.306Z,90.10
2017-12-14T06:21:55.058Z,89.90
2017-12-14T06:24:24.311Z,90.00
2017-12-14T06:26:54.158Z,89.90
2017-12-14T06:29:24.381Z,90.00
2017-12-14T06:31:56.753Z,90.00
2017-12-14T06:34:26.833Z,90.00
2017-12-14T06:37:02.754Z,90.10
2017-12-14T06:39:32.693Z,89.70
2017-12-14T06:42:11.116Z,89.90
2017-12-14T06:44:48.823Z,90.00
2017-12-14T06:47:21.053Z,89.80
2017-12-14T06:49:54.359Z,90.00
2017-12-14T06:52:27.822Z,89.80
2017-12-14T06:55:01.946Z,89.70
2017-12-14T07:27:29.864Z,90.60
2017-12-14T07:30:02.717Z,90.70
2017-12-14T07:32:34.394Z,90.60
2017-12-14T07:35:46.303Z,90.60
2017-12-14T07:38:17.396Z,90.50
2017-12-14T07:41:16.126Z,90.60
2017-12-14T07:44:01.451Z,90.50
2017-12-14T07:46:36.510Z,90.60
2017-12-14T07:49:22.216Z,90.60
2017-12-14T07:51:59.442Z,90.30
2017-12-14T07:54:29.061Z,90.10
2017-12-14T07:57:43.351Z,90.00
2017-12-14T08:00:15.354Z,90.00
2017-12-14T08:02:46.752Z,90.00
2017-12-14T08:05:21.022Z,90.00
2017-12-14T08:07:56.782Z,90.00
2017-12-14T08:10:29.582Z,90.00
2017-12-14T08:13:26.497Z,90.20
2017-12-14T08:15:59.774Z,90.20
2017-12-14T08:18:31.979Z,90.00
2017-12-14T08:21:13.507Z,90.00
2017-12-14T08:23:45.320Z,89.70
2017-12-14T08:26:24.293Z,89.50
2017-12-14T08:35:47.892Z,89.30
2017-12-14T08:38:21.183Z,88.80
2017-12-14T08:40:56.398Z,88.70
2017-12-14T08:47:27.528Z,89.00
2017-12-14T08:49:58.937Z,89.80
2017-12-14T08:52:31.607Z,90.00
2017-12-14T08:55:03.281Z,89.90
2017-12-14T08:57:40.777Z,90.00
2017-12-14T09:00:16.884Z,90.00
2017-12-14T09:02:51.152Z,90.00
2017-12-14T09:05:32.635Z,90.30
2017-12-14T09:08:02.681Z,90.20
2017-12-14T09:10:33.141Z,90.20
2017-12-14T09:13:12.046Z,90.20
2017-12-14T09:15:46.084Z,90.10
2017-12-14T09:18:24.801Z,90.10
2017-12-14T09:20:56.830Z,90.10
2017-12-14T09:23:26.703Z,90.20
2017-12-14T09:25:58.002Z,90.40
2017-12-14T09:28:37.592Z,90.30
2017-12-14T09:31:10.262Z,90.40
2017-12-14T09:33:43.883Z,90.40
2017-12-14T09:36:21.062Z,90.30
2017-12-14T09:38:55.680Z,90.60
2017-12-14T09:41:33.337Z,90.50
2017-12-14T09:44:28.484Z,90.10
2017-12-14T09:47:04.641Z,90.20
2017-12-14T09:49:36.357Z,90.20
2017-12-14T09:52:06.302Z,90.20
2017-12-14T09:54:38.430Z,90.10
2017-12-14T09:57:07.704Z,90.20
2017-12-14T09:59:42.942Z,90.00
2017-12-14T10:02:15.394Z,90.20
2017-12-14T10:04:45.996Z,90.20
2017-12-14T10:07:19.106Z,90.00
2017-12-14T10:09:53.381Z,90.00
2017-12-14T10:12:22.356Z,90.40
2017-12-14T10:14:55.967Z,90.10
2017-12-14T10:17:25.153Z,89.80
2017-12-14T10:19:55.152Z,89.70
2017-12-14T10:22:27.041Z,88.80
2017-12-14T10:25:01.503Z,88.50
2017-12-14T10:27:33.970Z,88.50
2017-12-14T10:30:08.965Z,88.20
2017-12-14T10:32:41.938Z,89.00
2017-12-14T10:35:16.021Z,88.60
2017-12-14T10:37:51.522Z,89.00
2017-12-14T10:40:28.248Z,88.70
2017-12-14T10:43:00.939Z,88.90
2017-12-14T10:49:36.162Z,88.40
2017-12-14T10:52:10.012Z,86.60
2017-12-14T10:54:45.490Z,86.50
2017-12-14T10:57:19.540Z,86.10
2017-12-14T10:59:52.799Z,86.40
2017-12-14T11:02:27.308Z,85.10
2017-12-14T11:04:56.923Z,85.40
2017-12-14T11:07:26.829Z,85.60
2017-12-14T11:10:08.024Z,85.00
2017-12-14T11:12:43.899Z,85.00
2017-12-14T11:15:19.563Z,86.10
2017-12-14T11:17:52.435Z,86.40
2017-12-14T11:20:33.055Z,86.40
2017-12-14T11:23:09.772Z,85.70
2017-12-14T11:25:43.675Z,85.80
2017-12-14T11:28:18.277Z,85.80
2017-12-14T11:34:14.620Z,86.00
2017-12-14T11:36:45.110Z,85.50
2017-12-14T11:39:18.214Z,85.50
2017-12-14T11:41:48.585Z,85.70
2017-12-14T11:44:22.865Z,86.10
2017-12-14T11:53:57.865Z,86.20
2017-12-14T11:56:28.418Z,86.40
2017-12-14T11:58:59.327Z,85.80
2017-12-14T12:01:31.279Z,85.80
2017-12-14T12:04:05.901Z,85.60
2017-12-14T12:06:39.733Z,86.00
2017-12-14T12:09:15.865Z,86.40
2017-12-14T12:11:50.161Z,86.40
2017-12-14T12:14:28.098Z,86.70
2017-12-14T12:20:33.811Z,86.10
2017-12-14T12:23:06.007Z,85.20
2017-12-14T12:25:43.992Z,85.40
2017-12-14T12:28:22.230Z,84.70
2017-12-14T12:30:56.608Z,85.40
2017-12-14T12:33:35.396Z,86.30
2017-12-14T12:36:09.648Z,84.60
2017-12-14T12:38:55.805Z,84.50
2017-12-14T12:41:28.172Z,84.60
2017-12-14T12:44:03.187Z,83.70
2017-12-14T12:47:10.821Z,83.20
2017-12-14T12:49:43.193Z,83.60
2017-12-14T12:52:18.941Z,83.00
2017-12-14T12:54:51.292Z,82.90
2017-12-14T12:57:26.068Z,82.80
2017-12-14T13:00:02.458Z,83.10
2017-12-14T13:02:37.405Z,82.50
2017-12-14T13:05:11.735Z,83.20
2017-12-14T13:07:45.936Z,82.90
2017-12-14T13:10:19.798Z,81.70
2017-12-14T13:12:56.994Z,81.60
2017-12-14T13:15:30.851Z,81.60
2017-12-14T13:18:41.654Z,82.10
2017-12-14T13:21:33.606Z,83.30
2017-12-14T13:24:04.903Z,82.60
2017-12-14T13:26:37.073Z,82.20
2017-12-14T13:29:06.016Z,82.20
2017-12-14T13:35:13.785Z,83.10
2017-12-14T13:37:47.947Z,83.00
2017-12-14T13:40:21.457Z,82.30
2017-12-14T13:42:57.913Z,82.30
2017-12-14T13:45:29.684Z,83.30
2017-12-14T13:48:21.225Z,82.10
2017-12-14T13:50:50.720Z,82.00
2017-12-14T13:53:23.994Z,83.00
2017-12-14T13:55:55.248Z,84.60
2017-12-14T13:58:26.423Z,86.40
2017-12-14T14:00:58.576Z,86.90
2017-12-14T14:03:31.539Z,87.20
2017-12-14T14:06:05.479Z,88.90
2017-12-14T14:08:36.859Z,87.60
2017-12-14T14:11:10.029Z,87.30
2017-12-14T14:13:42.926Z,87.40
2017-12-14T14:16:16.407Z,87.40
2017-12-14T14:18:47.991Z,88.10
2017-12-14T14:21:17.701Z,88.10
2017-12-14T14:23:49.853Z,86.70
2017-12-14T14:26:24.884Z,86.60
2017-12-14T14:28:56.823Z,86.90
2017-12-14T14:31:36.957Z,87.80
2017-12-14T14:34:46.004Z,86.40
2017-12-14T14:37:16.666Z,86.80
2017-12-14T14:39:51.191Z,87.10
2017-12-14T14:42:26.240Z,87.80
2017-12-14T14:45:01.940Z,87.30
2017-12-14T14:47:35.667Z,88.20
2017-12-14T14:50:09.601Z,89.20
2017-12-14T14:52:43.754Z,87.50
2017-12-14T14:55:19.265Z,87.90
2017-12-14T14:57:54.765Z,87.40
2017-12-14T15:00:30.239Z,86.70
2017-12-14T15:03:14.874Z,86.90
2017-12-14T15:05:44.641Z,87.70
2017-12-14T15:08:16.323Z,87.60
2017-12-14T15:10:50.079Z,88.70
2017-12-14T15:13:26.599Z,88.90
2017-12-14T15:15:59.431Z,88.60
2017-12-14T15:19:00.017Z,88.80
2017-12-14T15:21:33.059Z,88.90
2017-12-14T15:24:10.720Z,89.30
2017-12-14T15:26:48.353Z,89.80
2017-12-14T15:29:27.566Z,90.00
2017-12-14T15:32:00.340Z,90.20
2017-12-14T15:34:34.363Z,90.40
2017-12-14T15:37:09.755Z,90.40
2017-12-14T15:39:41.302Z,90.40
2017-12-14T15:42:18.030Z,90.50
2017-12-14T15:44:53.538Z,90.40
2017-12-14T15:47:29.102Z,90.90
2017-12-14T15:50:04.584Z,90.90
2017-12-14T15:52:39.427Z,91.20
2017-12-14T15:55:13.402Z,91.60
2017-12-14T15:57:47.489Z,91.80
2017-12-14T16:00:24.989Z,92.00
2017-12-14T16:02:56.442Z,92.10
2017-12-14T16:06:06.545Z,92.20
2017-12-14T16:08:39.846Z,92.20
2017-12-14T16:11:16.240Z,92.20
2017-12-14T16:13:48.989Z,92.20
2017-12-14T16:16:24.954Z,92.10
2017-12-14T16:18:58.871Z,91.50
2017-12-14T16:21:31.670Z,91.30
2017-12-14T16:24:06.125Z,91.40
2017-12-14T16:26:42.919Z,91.50
2017-12-14T16:29:18.231Z,91.40
2017-12-14T16:31:53.076Z,91.40
2017-12-14T16:34:29.444Z,91.20
2017-12-14T16:37:05.194Z,91.50
2017-12-14T16:39:39.159Z,91.70
2017-12-14T16:42:13.371Z,91.90
2017-12-14T16:44:55.469Z,92.30
2017-12-14T16:47:24.659Z,92.40
2017-12-14T17:00:06.821Z,92.60
2017-12-14T17:02:37.479Z,93.30
2017-12-14T17:05:56.371Z,93.10
2017-12-14T17:08:29.544Z,93.00
2017-12-14T17:10:59.892Z,93.10
2017-12-14T17:13:30.293Z,93.40
2017-12-14T17:16:02.789Z,93.80
2017-12-14T17:18:36.303Z,93.90
2017-12-14T17:21:29.095Z,93.90
2017-12-14T17:24:01.954Z,93.80
2017-12-14T17:26:40.445Z,93.60
2017-12-14T17:29:14.053Z,93.50
2017-12-14T17:31:49.281Z,93.00
2017-12-14T17:34:21.489Z,93.10
2017-12-14T17:43:55.031Z,92.80
2017-12-14T17:46:24.531Z,92.50
2017-12-14T17:48:53.500Z,92.60
2017-12-14T17:51:34.775Z,92.70
2017-12-14T17:54:07.037Z,92.40
2017-12-14T17:56:40.530Z,92.50
2017-12-14T17:59:15.022Z,92.40
2017-12-14T18:01:50.382Z,92.40
2017-12-14T18:04:24.027Z,92.40
2017-12-14T18:07:20.929Z,92.40
2017-12-14T18:09:51.892Z,92.50
2017-12-14T18:12:23.102Z,92.40
2017-12-14T18:14:56.040Z,92.60
2017-12-14T18:17:33.172Z,92.60
2017-12-14T18:20:06.479Z,92.50
2017-12-14T18:29:44.958Z,93.10
2017-12-14T18:32:15.195Z,93.00
2017-12-14T18:34:45.316Z,93.20
2017-12-14T18:44:06.632Z,92.90
2017-12-14T18:46:56.795Z,93.00
2017-12-14T18:49:31.730Z,93.00
2017-12-14T18:52:44.813Z,92.90
2017-12-14T18:55:24.016Z,93.10
2017-12-14T18:58:02.255Z,93.30
2017-12-14T19:00:37.211Z,93.40
2017-12-14T19:03:10.821Z,93.20
2017-12-14T19:05:44.949Z,93.10
2017-12-14T19:14:59.159Z,92.90
2017-12-14T19:17:35.624Z,92.70
2017-12-14T19:20:07.487Z,92.30
2017-12-14T19:22:44.994Z,92.30
2017-12-14T19:25:21.405Z,92.30
2017-12-14T19:27:54.310Z,92.20
2017-12-14T19:30:31.302Z,92.40
2017-12-14T19:33:05.813Z,92.40
2017-12-14T19:35:39.170Z,92.40
2017-12-14T19:38:08.827Z,92.40
2017-12-14T19:40:44.592Z,92.40
2017-12-14T19:43:17.925Z,92.70
2017-12-14T19:45:49.404Z,92.60
2017-12-14T19:48:18.202Z,92.60
2017-12-14T19:50:50.457Z,92.80
2017-12-14T20:07:28.342Z,93.10
2017-12-14T20:10:04.109Z,93.20
2017-12-14T20:12:39.350Z,93.10
2017-12-14T20:15:14.408Z,93.30
2017-12-14T20:17:45.617Z,93.30
2017-12-14T20:20:17.282Z,93.50
2017-12-14T20:26:08.367Z,93.50
2017-12-14T20:28:37.907Z,93.50
2017-12-14T20:31:07.878Z,93.70
2017-12-14T20:33:37.465Z,93.50
2017-12-14T20:36:06.739Z,93.50
2017-12-14T20:38:38.799Z,93.40
2017-12-14T20:41:08.979Z,93.50
2017-12-14T20:43:42.457Z,93.40
2017-12-14T20:46:16.137Z,93.70
2017-12-14T20:48:55.465Z,93.50
2017-12-14T20:51:27.532Z,93.60
2017-12-14T20:53:58.614Z,93.70
2017-12-14T20:56:27.247Z,94.30
2017-12-14T20:59:00.294Z,94.10
2017-12-14T21:01:29.590Z,94.10
2017-12-14T21:04:00.508Z,94.40
2017-12-14T21:06:32.096Z,94.50
2017-12-14T21:09:17.238Z,95.30
2017-12-14T21:11:49.590Z,95.30
2017-12-14T21:14:18.911Z,95.30
2017-12-14T21:16:49.839Z,95.60
2017-12-14T21:19:20.738Z,95.70
2017-12-14T21:21:49.757Z,95.70
2017-12-14T21:28:22.079Z,95.10
2017-12-14T21:30:51.798Z,94.80
2017-12-14T21:33:22.025Z,94.50
2017-12-14T21:35:53.164Z,94.40
2017-12-14T21:38:22.320Z,94.60
2017-12-14T21:40:51.942Z,94.80
2017-12-14T21:43:20.670Z,94.80
2017-12-14T21:45:52.265Z,94.70
2017-12-14T21:48:21.142Z,94.70
2017-12-14T21:50:52.535Z,94.70
2017-12-14T21:53:22.581Z,94.40
2017-12-14T21:55:53.863Z,94.30
2017-12-14T21:58:23.670Z,94.40
2017-12-14T22:00:53.583Z,94.30
2017-12-14T22:03:23.670Z,94.30
2017-12-14T22:05:54.086Z,94.50
2017-12-14T22:08:27.785Z,95.20
2017-12-14T22:10:58.933Z,95.30
2017-12-14T22:13:30.066Z,95.40
2017-12-14T22:16:01.504Z,95.50
2017-12-14T22:18:35.605Z,95.50
2017-12-14T22:21:07.865Z,95.50
2017-12-14T22:27:21.797Z,95.20
2017-12-14T22:32:56.765Z,95.00
2017-12-14T22:35:28.629Z,94.90
2017-12-14T22:38:00.099Z,94.90
2017-12-14T22:51:04.870Z,94.90
2017-12-14T22:53:36.211Z,94.70
2017-12-14T22:56:10.551Z,94.80
2017-12-14T22:58:50.272Z,95.10
2017-12-14T23:01:22.503Z,94.60
2017-12-14T23:03:53.810Z,94.60
2017-12-14T23:06:26.169Z,94.50
2017-12-14T23:08:57.091Z,94.40
2017-12-14T23:11:55.947Z,94.50
2017-12-14T23:14:27.920Z,94.50
2017-12-14T23:17:00.941Z,94.70
2017-12-14T23:19:32.333Z,94.90
2017-12-14T23:22:02.887Z,94.80
2017-12-14T23:24:32.281Z,95.00
2017-12-14T23:27:29.062Z,94.70
2017-12-14T23:30:02.560Z,94.90
2017-12-14T23:32:35.045Z,94.90
2017-12-14T23:35:07.335Z,95.20
2017-12-14T23:37:40.237Z,95.00
2017-12-14T23:40:16.693Z,95.20
2017-12-14T23:42:51.040Z,95.20
2017-12-14T23:45:26.803Z,95.00
2017-12-14T23:48:01.044Z,94.80
2017-12-14T23:50:35.125Z,94.50
2017-12-14T23:53:10.067Z,94.90
2017-12-14T23:55:42.935Z,94.80
2017-12-14T23:58:15.245Z,95.20
